createdAt,value
2022-07-29T00:02:26.636Z,20.70
2022-07-29T00:04:53.421Z,20.79
2022-07-29T00:07:20.145Z,20.75
2022-07-29T00:09:51.535Z,20.60
2022-07-29T00:12:26.169Z,20.67
2022-07-29T00:14:55.226Z,20.54
2022-07-29T00:17:22.319Z,20.59
2022-07-29T00:19:48.954Z,20.72
2022-07-29T00:22:15.829Z,20.64
2022-07-29T00:24:42.559Z,20.50
2022-07-29T00:27:09.223Z,20.33
2022-07-29T00:29:35.904Z,20.17
2022-07-29T00:32:03.871Z,20.20
2022-07-29T00:34:49.433Z,20.42
2022-07-29T00:37:16.205Z,20.22
2022-07-29T00:39:43.006Z,20.32
2022-07-29T00:42:10.598Z,20.31
2022-07-29T00:44:41.508Z,20.49
2022-07-29T00:47:09.991Z,20.59
2022-07-29T00:49:37.582Z,20.47
2022-07-29T00:52:08.571Z,20.56
2022-07-29T00:54:35.282Z,20.05
2022-07-29T00:57:04.133Z,20.18
2022-07-29T00:59:34.728Z,20.11
2022-07-29T01:02:04.079Z,20.12
2022-07-29T01:04:32.412Z,19.77
2022-07-29T01:07:01.015Z,20.09
2022-07-29T01:09:43.158Z,20.05
2022-07-29T01:12:22.318Z,19.89
2022-07-29T01:14:50.647Z,19.82
2022-07-29T01:17:52.717Z,19.83
2022-07-29T01:20:48.106Z,19.71
2022-07-29T01:23:38.123Z,19.93
2022-07-29T01:26:11.121Z,19.75
2022-07-29T01:29:07.568Z,19.84
2022-07-29T01:31:59.606Z,19.86
2022-07-29T01:34:47.925Z,19.92
2022-07-29T01:37:21.344Z,19.84
2022-07-29T01:39:52.391Z,19.88
2022-07-29T01:42:44.241Z,19.57
2022-07-29T01:45:27.297Z,19.58
2022-07-29T01:47:53.863Z,19.33
2022-07-29T01:50:24.255Z,19.30
2022-07-29T01:52:56.917Z,19.18
2022-07-29T01:55:29.517Z,19.33
2022-07-29T01:57:58.413Z,19.23
2022-07-29T02:00:26.549Z,19.35
2022-07-29T02:02:55.261Z,19.39
2022-07-29T02:05:24.150Z,19.16
2022-07-29T02:07:53.624Z,19.22
2022-07-29T02:10:25.787Z,19.37
2022-07-29T02:12:55.548Z,19.37
2022-07-29T02:15:24.151Z,19.45
2022-07-29T02:17:59.082Z,19.68
2022-07-29T02:20:27.230Z,19.45
2022-07-29T02:22:56.343Z,19.18
2022-07-29T02:25:25.242Z,19.00
2022-07-29T02:28:06.161Z,19.05
2022-07-29T02:30:33.858Z,19.04
2022-07-29T02:33:01.983Z,19.30
2022-07-29T02:35:34.621Z,19.19
2022-07-29T02:38:22.261Z,19.15
2022-07-29T02:40:50.729Z,19.15
2022-07-29T02:43:18.745Z,19.18
2022-07-29T02:45:48.259Z,19.18
2022-07-29T02:48:24.989Z,19.06
2022-07-29T02:51:02.251Z,18.80
2022-07-29T02:53:34.189Z,18.62
2022-07-29T02:56:15.491Z,18.57
2022-07-29T02:58:50.439Z,18.59
2022-07-29T03:01:23.249Z,18.76
2022-07-29T03:03:52.666Z,18.86
2022-07-29T03:06:31.078Z,19.03
2022-07-29T03:09:12.318Z,19.08
2022-07-29T03:11:49.367Z,19.21
2022-07-29T03:14:20.373Z,19.37
2022-07-29T03:16:48.469Z,19.22
2022-07-29T03:19:15.850Z,18.95
2022-07-29T03:21:42.554Z,19.05
2022-07-29T03:24:12.617Z,19.24
2022-07-29T03:29:05.886Z,19.20
2022-07-29T03:31:33.543Z,19.17
2022-07-29T03:34:00.412Z,18.91
2022-07-29T03:36:27.144Z,18.70
2022-07-29T03:38:54.193Z,18.64
2022-07-29T03:41:23.406Z,18.46
2022-07-29T03:43:52.583Z,18.47
2022-07-29T03:46:23.738Z,18.13
2022-07-29T03:48:57.320Z,18.08
2022-07-29T03:51:33.992Z,18.35
2022-07-29T03:54:14.200Z,18.39
2022-07-29T03:56:45.456Z,18.38
2022-07-29T03:59:13.678Z,18.43
2022-07-29T04:01:40.802Z,18.62
2022-07-29T04:04:07.735Z,18.83
2022-07-29T04:06:45.457Z,18.64
2022-07-29T04:09:13.265Z,18.47
2022-07-29T04:12:02.171Z,18.45
2022-07-29T04:14:28.003Z,18.81
2022-07-29T04:16:54.693Z,19.09
2022-07-29T04:19:21.449Z,18.94
2022-07-29T04:21:48.119Z,18.57
2022-07-29T04:24:15.196Z,18.48
2022-07-29T04:26:42.127Z,18.71
2022-07-29T04:29:08.734Z,18.97
2022-07-29T04:31:35.633Z,18.81
2022-07-29T04:34:02.374Z,18.46
2022-07-29T04:36:30.091Z,18.48
2022-07-29T04:38:56.991Z,18.52
2022-07-29T04:41:23.747Z,18.38
2022-07-29T04:44:01.796Z,18.16
2022-07-29T04:46:28.561Z,17.83
2022-07-29T04:48:55.368Z,17.59
2022-07-29T04:51:21.980Z,17.66
2022-07-29T04:53:48.833Z,17.61
2022-07-29T04:56:15.436Z,17.51
2022-07-29T04:58:42.135Z,17.37
2022-07-29T05:01:08.768Z,17.25
2022-07-29T05:03:35.468Z,17.20
2022-07-29T05:06:02.063Z,17.51
2022-07-29T05:08:28.822Z,17.75
2022-07-29T05:10:55.480Z,17.92
2022-07-29T05:13:22.292Z,17.90
2022-07-29T05:15:49.090Z,17.58
2022-07-29T05:18:15.849Z,17.52
2022-07-29T05:20:42.825Z,17.63
2022-07-29T05:23:09.845Z,17.68
2022-07-29T05:25:42.914Z,18.10
2022-07-29T05:28:12.294Z,18.43
2022-07-29T05:30:39.021Z,18.58
2022-07-29T05:33:05.754Z,18.71
2022-07-29T05:35:32.419Z,18.65
2022-07-29T05:37:59.045Z,18.47
2022-07-29T05:40:25.675Z,17.77
2022-07-29T05:42:52.351Z,17.57
2022-07-29T05:45:19.011Z,18.01
2022-07-29T05:47:46.408Z,18.42
2022-07-29T05:50:13.233Z,18.55
2022-07-29T05:52:39.843Z,18.61
2022-07-29T05:55:06.775Z,18.67
2022-07-29T05:57:33.555Z,18.70
2022-07-29T06:00:00.299Z,18.51
2022-07-29T06:02:26.976Z,18.53
2022-07-29T06:04:53.737Z,18.52
2022-07-29T06:07:20.678Z,18.42
2022-07-29T06:09:47.266Z,18.43
2022-07-29T06:12:13.967Z,18.59
2022-07-29T06:14:40.983Z,18.38
2022-07-29T06:17:07.675Z,18.51
2022-07-29T06:19:37.464Z,18.49
2022-07-29T06:22:04.621Z,18.57
2022-07-29T06:24:31.627Z,18.55
2022-07-29T06:26:58.465Z,18.39
2022-07-29T06:29:25.213Z,18.30
2022-07-29T06:31:52.009Z,18.46
2022-07-29T06:34:19.182Z,18.37
2022-07-29T06:36:47.570Z,18.39
2022-07-29T06:39:15.971Z,18.60
2022-07-29T06:41:42.778Z,18.69
2022-07-29T06:44:10.119Z,18.70
2022-07-29T06:46:37.392Z,18.67
2022-07-29T06:49:05.295Z,18.77
2022-07-29T06:51:32.001Z,18.82
2022-07-29T06:54:02.813Z,18.91
2022-07-29T06:56:40.293Z,18.84
2022-07-29T06:59:08.794Z,18.82
2022-07-29T07:01:40.196Z,18.79
2022-07-29T07:04:07.663Z,18.89
2022-07-29T07:06:34.284Z,18.87
2022-07-29T07:09:01.118Z,18.87
2022-07-29T07:11:28.420Z,18.90
2022-07-29T07:13:59.258Z,18.88
2022-07-29T07:16:29.431Z,18.86
2022-07-29T07:18:56.048Z,18.84
2022-07-29T07:21:22.898Z,18.90
2022-07-29T07:23:49.531Z,18.92
2022-07-29T07:26:16.476Z,18.95
2022-07-29T07:28:43.078Z,18.99
2022-07-29T07:31:10.443Z,18.95
2022-07-29T07:33:37.156Z,18.90
2022-07-29T07:36:04.220Z,18.82
2022-07-29T07:38:30.897Z,18.94
2022-07-29T07:40:57.728Z,18.98
2022-07-29T07:43:24.313Z,19.05
2022-07-29T07:45:51.207Z,19.08
2022-07-29T07:48:18.006Z,19.10
2022-07-29T07:50:44.732Z,19.19
2022-07-29T07:53:11.669Z,19.22
2022-07-29T07:56:09.225Z,19.16
2022-07-29T07:58:31.471Z,19.23
2022-07-29T08:00:58.251Z,19.18
2022-07-29T08:03:25.116Z,19.06
2022-07-29T08:05:52.643Z,19.02
2022-07-29T08:08:19.354Z,19.05
2022-07-29T08:10:56.639Z,19.05
2022-07-29T08:13:28.961Z,18.71
2022-07-29T08:15:59.087Z,18.74
2022-07-29T08:18:27.333Z,18.81
2022-07-29T08:20:54.158Z,18.91
2022-07-29T08:23:21.062Z,19.05
2022-07-29T08:25:50.063Z,18.90
2022-07-29T08:28:18.029Z,19.00
2022-07-29T08:30:44.837Z,19.10
2022-07-29T08:33:11.814Z,19.15
2022-07-29T08:35:40.380Z,19.14
2022-07-29T08:38:07.209Z,19.13
2022-07-29T08:40:33.934Z,19.13
2022-07-29T08:43:06.879Z,19.10
2022-07-29T08:45:51.042Z,19.15
2022-07-29T08:48:20.936Z,19.14
2022-07-29T08:50:49.496Z,19.14
2022-07-29T08:53:18.375Z,19.18
2022-07-29T08:55:47.737Z,19.10
2022-07-29T08:58:15.945Z,19.22
2022-07-29T09:00:53.910Z,19.42
2022-07-29T09:03:25.534Z,19.43
2022-07-29T09:05:52.663Z,19.24
2022-07-29T09:08:20.928Z,19.28
2022-07-29T09:10:48.082Z,19.37
2022-07-29T09:13:14.670Z,19.25
2022-07-29T09:15:41.355Z,19.20
2022-07-29T09:18:07.994Z,19.29
2022-07-29T09:21:11.820Z,19.19
2022-07-29T09:23:38.886Z,19.16
2022-07-29T09:26:07.133Z,19.05
2022-07-29T09:28:33.732Z,19.13
2022-07-29T09:31:00.371Z,19.15
2022-07-29T09:33:36.509Z,19.14
2022-07-29T09:36:08.526Z,19.18
2022-07-29T09:38:37.513Z,19.19
2022-07-29T09:41:06.696Z,19.25
2022-07-29T09:43:34.170Z,19.30
2022-07-29T09:46:14.399Z,19.25
2022-07-29T09:48:41.617Z,19.15
2022-07-29T09:51:26.716Z,18.92
2022-07-29T09:53:55.254Z,18.89
2022-07-29T09:56:39.522Z,18.95
2022-07-29T09:59:07.458Z,18.99
2022-07-29T10:01:34.548Z,19.00
2022-07-29T10:04:01.484Z,18.92
2022-07-29T10:06:28.134Z,18.91
2022-07-29T10:08:55.416Z,19.13
2022-07-29T10:11:22.030Z,18.94
2022-07-29T10:13:49.568Z,18.62
2022-07-29T10:16:17.585Z,18.58
2022-07-29T10:18:45.542Z,18.88
2022-07-29T10:21:35.197Z,19.02
2022-07-29T10:24:00.951Z,19.05
2022-07-29T10:26:30.407Z,19.06
2022-07-29T10:28:58.093Z,19.09
2022-07-29T10:31:35.568Z,19.05
2022-07-29T10:34:08.787Z,18.80
2022-07-29T10:36:50.619Z,18.76
2022-07-29T10:39:27.217Z,18.95
2022-07-29T10:42:29.720Z,19.05
2022-07-29T10:45:02.708Z,19.12
2022-07-29T10:47:31.642Z,19.09
2022-07-29T10:50:01.378Z,19.05
2022-07-29T10:52:57.845Z,19.06
2022-07-29T10:58:27.485Z,19.17
2022-07-29T11:00:56.244Z,18.84
2022-07-29T11:03:50.689Z,19.04
2022-07-29T11:06:26.206Z,19.18
2022-07-29T11:09:13.106Z,19.16
2022-07-29T11:11:44.188Z,18.95
2022-07-29T11:14:18.635Z,18.95
2022-07-29T11:17:06.460Z,19.05
2022-07-29T11:19:33.853Z,19.22
2022-07-29T11:22:01.400Z,19.42
2022-07-29T11:24:33.044Z,19.45
2022-07-29T11:27:14.017Z,19.56
2022-07-29T11:29:54.447Z,19.55
2022-07-29T11:35:17.116Z,19.30
2022-07-29T11:38:23.219Z,19.40
2022-07-29T11:41:27.274Z,19.52
2022-07-29T11:43:59.130Z,19.65
2022-07-29T11:46:44.658Z,19.69
2022-07-29T11:49:12.488Z,19.74
2022-07-29T11:51:48.524Z,19.58
2022-07-29T11:54:27.296Z,19.81
2022-07-29T11:56:55.838Z,20.05
2022-07-29T11:59:22.783Z,20.01
2022-07-29T12:02:18.481Z,19.87
2022-07-29T12:04:56.521Z,20.10
2022-07-29T12:07:34.770Z,20.22
2022-07-29T12:10:04.037Z,20.26
2022-07-29T12:12:34.292Z,20.43
2022-07-29T12:15:24.913Z,20.52
2022-07-29T12:18:15.040Z,20.53
2022-07-29T12:20:43.040Z,20.41
2022-07-29T12:23:16.214Z,20.60
2022-07-29T12:25:45.534Z,20.71
2022-07-29T12:28:26.547Z,20.84
2022-07-29T12:30:53.850Z,20.92
2022-07-29T12:33:27.401Z,21.06
2022-07-29T12:36:07.277Z,21.18
2022-07-29T12:38:36.832Z,21.24
2022-07-29T12:41:04.939Z,21.30
2022-07-29T12:43:32.615Z,21.35
2022-07-29T12:46:13.375Z,21.38
2022-07-29T12:48:42.659Z,21.48
2022-07-29T12:51:12.481Z,21.54
2022-07-29T12:53:39.547Z,21.73
2022-07-29T12:56:26.677Z,21.64
2022-07-29T12:58:54.044Z,21.73
2022-07-29T13:01:21.785Z,21.80
2022-07-29T13:04:03.682Z,21.97
2022-07-29T13:06:39.557Z,21.99
2022-07-29T13:09:14.441Z,22.13
2022-07-29T13:11:47.932Z,22.19
2022-07-29T13:14:36.696Z,21.88
2022-07-29T13:17:21.590Z,21.73
2022-07-29T13:19:54.042Z,21.81
2022-07-29T13:22:25.564Z,21.75
2022-07-29T13:25:02.851Z,21.86
2022-07-29T13:27:37.181Z,22.04
2022-07-29T13:30:06.824Z,21.84
2022-07-29T13:32:35.433Z,21.83
2022-07-29T13:35:05.606Z,21.88
2022-07-29T13:37:34.981Z,21.94
2022-07-29T13:40:04.041Z,21.86
2022-07-29T13:42:31.112Z,21.97
2022-07-29T13:44:58.706Z,22.00
2022-07-29T13:47:32.206Z,21.88
2022-07-29T13:50:04.213Z,21.86
2022-07-29T13:52:32.863Z,21.93
2022-07-29T13:54:59.520Z,21.93
2022-07-29T13:57:26.246Z,21.86
2022-07-29T13:59:54.441Z,21.77
2022-07-29T14:02:21.722Z,21.69
2022-07-29T14:04:53.761Z,21.81
2022-07-29T14:07:20.434Z,21.87
2022-07-29T14:09:47.153Z,21.96
2022-07-29T14:12:13.899Z,22.04
2022-07-29T14:14:40.626Z,22.06
2022-07-29T14:17:07.732Z,21.92
2022-07-29T14:19:38.934Z,21.89
2022-07-29T14:22:07.703Z,21.98
2022-07-29T14:24:37.065Z,22.11
2022-07-29T14:27:05.366Z,22.20
2022-07-29T14:29:37.132Z,22.20
2022-07-29T14:32:09.856Z,22.13
2022-07-29T14:34:37.943Z,22.22
2022-07-29T14:37:06.403Z,22.18
2022-07-29T14:39:36.076Z,22.20
2022-07-29T14:42:06.295Z,22.11
2022-07-29T14:44:33.031Z,22.29
2022-07-29T14:47:00.770Z,22.53
2022-07-29T14:49:28.051Z,22.52
2022-07-29T14:51:54.712Z,22.54
2022-07-29T14:54:21.415Z,22.57
2022-07-29T14:56:50.177Z,22.82
2022-07-29T14:59:17.464Z,22.78
2022-07-29T15:01:44.269Z,22.81
2022-07-29T15:04:11.068Z,22.87
2022-07-29T15:06:38.781Z,22.99
2022-07-29T15:09:05.483Z,23.02
2022-07-29T15:11:32.204Z,22.96
2022-07-29T15:14:05.404Z,22.93
2022-07-29T15:16:32.191Z,22.87
2022-07-29T15:19:01.148Z,22.89
2022-07-29T15:21:28.445Z,22.96
2022-07-29T15:23:55.161Z,22.95
2022-07-29T15:26:21.945Z,23.04
2022-07-29T15:28:49.123Z,23.03
2022-07-29T15:31:15.980Z,22.97
2022-07-29T15:33:42.828Z,22.95
2022-07-29T15:36:09.599Z,23.16
2022-07-29T15:38:36.323Z,23.17
2022-07-29T15:41:09.050Z,23.23
2022-07-29T15:43:36.145Z,23.16
2022-07-29T15:46:21.571Z,23.09
2022-07-29T15:48:48.268Z,23.09
2022-07-29T15:51:15.256Z,23.15
2022-07-29T15:53:41.882Z,23.19
2022-07-29T15:56:08.461Z,23.27
2022-07-29T15:58:35.083Z,23.37
2022-07-29T16:01:01.798Z,23.46
2022-07-29T16:03:28.561Z,23.50
2022-07-29T16:05:55.294Z,23.38
2022-07-29T16:08:21.929Z,23.27
2022-07-29T16:10:48.522Z,23.28
2022-07-29T16:13:18.875Z,23.29
2022-07-29T16:16:02.299Z,23.32
2022-07-29T16:18:30.755Z,23.32
2022-07-29T16:20:58.114Z,23.51
2022-07-29T16:23:25.241Z,23.62
2022-07-29T16:26:00.466Z,23.81
2022-07-29T16:28:29.072Z,23.65
2022-07-29T16:30:55.765Z,23.62
2022-07-29T16:33:24.500Z,23.69
2022-07-29T16:35:52.014Z,23.79
2022-07-29T16:38:19.057Z,23.69
2022-07-29T16:40:45.793Z,23.65
2022-07-29T16:43:12.593Z,23.78
2022-07-29T16:45:46.187Z,23.87
2022-07-29T16:48:14.545Z,23.80
2022-07-29T16:50:43.336Z,23.80
2022-07-29T16:53:10.863Z,23.93
2022-07-29T16:55:37.990Z,23.91
2022-07-29T16:58:04.815Z,24.06
2022-07-29T17:00:31.609Z,24.16
2022-07-29T17:02:59.884Z,24.24
2022-07-29T17:05:27.620Z,24.18
2022-07-29T17:07:54.789Z,24.06
2022-07-29T17:10:22.183Z,24.14
2022-07-29T17:12:48.820Z,24.22
2022-07-29T17:15:18.439Z,24.26
2022-07-29T17:17:55.461Z,24.13
2022-07-29T17:20:24.019Z,24.14
2022-07-29T17:22:50.627Z,24.22
2022-07-29T17:25:20.358Z,24.33
2022-07-29T17:27:49.617Z,24.26
2022-07-29T17:30:16.811Z,24.35
2022-07-29T17:32:43.505Z,24.42
2022-07-29T17:35:28.917Z,24.37
2022-07-29T17:37:55.613Z,24.49
2022-07-29T17:40:22.654Z,24.53
2022-07-29T17:42:49.364Z,24.60
2022-07-29T17:45:16.045Z,24.57
2022-07-29T17:47:42.697Z,24.52
2022-07-29T17:50:09.558Z,24.57
2022-07-29T17:52:36.239Z,24.67
2022-07-29T17:55:02.849Z,24.66
2022-07-29T17:57:29.475Z,24.69
2022-07-29T17:59:56.059Z,24.60
2022-07-29T18:02:22.862Z,24.52
2022-07-29T18:04:53.207Z,24.35
2022-07-29T18:07:19.809Z,24.29
2022-07-29T18:09:46.523Z,24.30
2022-07-29T18:12:13.109Z,24.17
2022-07-29T18:14:39.711Z,23.96
2022-07-29T18:17:06.300Z,23.92
2022-07-29T18:19:33.039Z,24.01
2022-07-29T18:22:05.140Z,23.85
2022-07-29T18:24:32.659Z,23.84
2022-07-29T18:26:59.560Z,23.93
2022-07-29T18:29:28.901Z,23.95
2022-07-29T18:31:56.088Z,23.99
2022-07-29T18:34:22.695Z,23.83
2022-07-29T18:36:49.337Z,23.85
2022-07-29T18:39:20.508Z,23.86
2022-07-29T18:41:50.381Z,23.82
2022-07-29T18:44:20.418Z,23.76
2022-07-29T18:46:48.934Z,23.77
2022-07-29T18:49:15.717Z,23.70
2022-07-29T18:51:42.535Z,23.65
2022-07-29T18:54:10.446Z,23.69
2022-07-29T18:56:37.361Z,23.68
2022-07-29T18:59:04.196Z,23.63
2022-07-29T19:01:31.449Z,23.58
2022-07-29T19:03:58.909Z,23.39
2022-07-29T19:06:26.149Z,23.34
2022-07-29T19:08:53.394Z,23.28
2022-07-29T19:11:20.067Z,23.21
2022-07-29T19:13:46.674Z,23.15
2022-07-29T19:16:13.953Z,23.08
2022-07-29T19:18:41.579Z,23.02
2022-07-29T19:21:08.648Z,22.88
2022-07-29T19:24:05.792Z,22.84
2022-07-29T19:26:22.213Z,22.81
2022-07-29T19:28:49.306Z,22.60
2022-07-29T19:31:16.059Z,22.41
2022-07-29T19:33:42.811Z,22.53
2022-07-29T19:36:09.643Z,22.57
2022-07-29T19:38:38.131Z,22.65
2022-07-29T19:41:06.134Z,22.67
2022-07-29T19:43:50.586Z,22.59
2022-07-29T19:46:20.955Z,22.51
2022-07-29T19:48:48.005Z,22.51
2022-07-29T19:51:14.919Z,22.52
2022-07-29T19:53:41.481Z,22.46
2022-07-29T19:56:08.794Z,22.35
2022-07-29T19:58:36.066Z,22.31
2022-07-29T20:01:03.163Z,22.25
2022-07-29T20:03:39.623Z,22.22
2022-07-29T20:06:06.613Z,22.18
2022-07-29T20:08:33.286Z,22.09
2022-07-29T20:10:59.867Z,21.98
2022-07-29T20:13:26.554Z,21.87
2022-07-29T20:15:53.296Z,21.82
2022-07-29T20:18:20.097Z,21.77
2022-07-29T20:20:48.049Z,21.83
2022-07-29T20:23:16.300Z,21.88
2022-07-29T20:25:42.884Z,21.89
2022-07-29T20:28:09.712Z,21.91
2022-07-29T20:30:38.402Z,21.82
2022-07-29T20:33:05.468Z,21.67
2022-07-29T20:35:32.222Z,21.58
2022-07-29T20:38:00.248Z,21.49
2022-07-29T20:40:27.522Z,21.23
2022-07-29T20:42:55.390Z,21.40
2022-07-29T20:45:23.365Z,21.52
2022-07-29T20:47:51.601Z,21.61
2022-07-29T20:50:20.484Z,21.57
2022-07-29T20:52:50.959Z,21.46
2022-07-29T20:55:17.646Z,21.33
2022-07-29T20:57:44.272Z,21.20
2022-07-29T21:00:11.260Z,21.14
2022-07-29T21:02:38.045Z,21.01
2022-07-29T21:05:05.715Z,20.92
2022-07-29T21:07:32.356Z,21.04
2022-07-29T21:09:58.968Z,20.81
2022-07-29T21:12:25.708Z,20.70
2022-07-29T21:14:52.391Z,21.01
2022-07-29T21:17:22.586Z,21.18
2022-07-29T21:19:55.167Z,21.30
2022-07-29T21:22:22.160Z,21.26
2022-07-29T21:24:49.826Z,21.21
2022-07-29T21:27:38.245Z,21.13
2022-07-29T21:30:07.773Z,21.11
2022-07-29T21:32:34.519Z,21.04
2022-07-29T21:35:01.310Z,20.99
2022-07-29T21:37:28.135Z,20.95
2022-07-29T21:39:54.842Z,21.00
2022-07-29T21:42:21.528Z,20.96
2022-07-29T21:44:48.208Z,20.79
2022-07-29T21:47:14.885Z,20.50
2022-07-29T21:49:41.549Z,20.43
2022-07-29T21:52:09.063Z,20.48
2022-07-29T21:54:35.729Z,20.50
2022-07-29T21:57:02.683Z,20.59
2022-07-29T21:59:29.788Z,20.67
2022-07-29T22:01:56.708Z,20.74
2022-07-29T22:04:23.532Z,20.76
2022-07-29T22:06:50.165Z,20.70
2022-07-29T22:09:16.783Z,20.66
2022-07-29T22:11:43.566Z,20.55
2022-07-29T22:14:10.282Z,20.65
2022-07-29T22:16:37.046Z,20.59
2022-07-29T22:19:04.272Z,20.60
2022-07-29T22:21:31.032Z,20.53
2022-07-29T22:23:58.046Z,20.53
2022-07-29T22:26:24.701Z,20.56
2022-07-29T22:28:51.347Z,20.69
2022-07-29T22:31:18.147Z,20.73
2022-07-29T22:33:44.838Z,20.85
2022-07-29T22:36:11.496Z,21.06
2022-07-29T22:38:38.440Z,21.03
2022-07-29T22:41:05.126Z,20.92
2022-07-29T22:43:31.962Z,20.84
2022-07-29T22:45:58.598Z,20.80
2022-07-29T22:48:25.205Z,20.88
2022-07-29T22:50:51.790Z,20.80
2022-07-29T22:53:18.587Z,20.77
2022-07-29T22:55:45.362Z,20.74
2022-07-29T22:58:12.386Z,20.82
2022-07-29T23:00:39.101Z,20.84
2022-07-29T23:03:05.721Z,20.75
2022-07-29T23:05:32.613Z,20.70
2022-07-29T23:07:59.823Z,20.71
2022-07-29T23:10:26.505Z,20.80
2022-07-29T23:12:53.165Z,20.83
2022-07-29T23:15:19.852Z,20.86
2022-07-29T23:17:46.472Z,20.80
2022-07-29T23:20:14.790Z,20.60
2022-07-29T23:22:41.902Z,20.36
2022-07-29T23:25:08.710Z,20.26
2022-07-29T23:27:35.706Z,20.33
2022-07-29T23:30:02.858Z,20.24
2022-07-29T23:32:29.617Z,20.25
2022-07-29T23:34:56.218Z,20.43
2022-07-29T23:37:23.273Z,20.60
2022-07-29T23:39:49.844Z,20.58
2022-07-29T23:42:16.466Z,20.52
2022-07-29T23:44:43.141Z,20.32
2022-07-29T23:47:09.819Z,19.93
2022-07-29T23:49:36.418Z,19.82
2022-07-29T23:52:03.242Z,19.91
2022-07-29T23:54:29.824Z,20.04
2022-07-29T23:56:57.780Z,19.91
2022-07-29T23:59:25.044Z,20.07
